KCLW/CLW METAR and TAF weather

Enter ICAO airport designator
Station Type Date Time Source
KCLW METAR 2020/09/22 20:55 UTC NOAA

KCLW 222055Z AUTO 09007G16KT 10SM CLR 29/17 A2998 RMK AO2


Station Type Date Time Source
KCLW Decoded METAR 2020/09/22 20:55 UTC NOAA

Station name not available
Sep 22, 2020 - 04:55 PM EDT / 2020.09.22 2055 UTC
Wind: from the E (090 degrees) at 8 MPH (7 KT) gusting to 18 MPH (16 KT):0
Visibility: 10 mile(s):0
Sky conditions: clear
Temperature: 84 F (29 C)
Dew Point: 62 F (17 C)
Relative Humidity: 48%
Pressure (altimeter): 29.98 in. Hg (1015 hPa)
ob: KCLW 222055Z AUTO 09007G16KT 10SM CLR 29/17 A2998 RMK AO2
cycle: 21

Station Type Date Time Source
KCLW TAF UTC NOAA

Error!

Example: see airport list